Latest Coastal Weather Observations for Cape Jaffa

IDS60701

Issued at 10:51 pm CST Monday 24 April 2017 (issued every 10 minutes, with the page automatically refreshed every 10 minutes)

About coastal observations | Map of coastal stations | Coastal observations for SA | Marine services | Other Formats
Station Details ID: 026095 Name: THE LIMESTONE Lat: -36.97 Lon: 139.72 Height: 17.0 m
Data from the previous 72 hours. | See also: Recent months at Cape Jaffa
Date/Time
CST
Temp
°C
Wind Pressure Rain since
9am
mm
Weather Cloud Vis
km
Sea
Height
m
Swell
Dir  Spd
kts
Gust
kts
hPa Trend Height
m
Period
s
Dir
24/10:30pm 15.2 S 3 3 1011.6 - 8.0 - - - - - - -
24/10:00pm 15.4 S 3 3 1011.9 - 8.0 - - - - - - -
24/09:30pm 15.4 SSE 2 3 1012.0 - 8.0 - - - - - - -
24/09:00pm 15.3 CALM 0 0 1012.2 - 8.0 - - - - - - -
24/08:30pm 15.4 ESE 3 3 1012.2 - 8.0 - - - - - - -
24/08:00pm 15.6 S 1 2 1012.4 - 8.0 - - - - - - -
24/07:30pm 15.6 ESE 2 3 1012.4 - 7.8 - - - - - - -
24/07:00pm 15.8 SSE 2 3 1012.6 - 7.4 - - - - - - -
24/06:30pm 16.0 SSE 3 4 1012.6 - 6.0 - - - - - - -
24/06:00pm 16.2 SSE 2 2 1012.7 - 4.0 Rain - - - - - -
24/05:30pm 16.3 SE 2 3 1012.7 - 3.6 - - - - - - -
24/05:00pm 16.6 ENE 3 3 1012.9 - 3.2 - - - - - - -
24/04:30pm 16.7 E 4 5 1012.6 - 3.2 - - - - - - -
24/04:00pm 16.8 E 6 7 1012.5 - 3.2 - - - - - - -
24/03:30pm 17.2 E 7 10 1012.6 - 3.2 - - - - - - -
24/03:00pm 17.6 ENE 9 12 1012.9 - 3.2 - - - - - - -
24/02:30pm 18.2 ENE 9 11 1013.3 - 3.2 - - - - - - -
24/02:00pm 18.2 E 10 12 1013.3 - 3.2 - - - - - - -
24/01:30pm 18.1 ENE 9 11 1013.9 - 3.2 - - - - - - -
24/01:00pm 18.1 E 9 11 1014.5 - 3.2 - - - - - - -
24/12:30pm 17.2 E 9 12 1014.9 - 3.2 - - - - - - -
24/12:00pm 16.4 E 8 11 1015.9 - 3.2 - - - - - - -
24/11:30am 15.8 ENE 8 11 1016.4 - 3.2 - - - - - - -
24/11:00am 15.4 ENE 6 8 1017.1 - 3.2 - - - - - - -
24/10:30am 14.9 E 6 7 1017.5 - 3.2 - - - - - - -
24/10:00am 14.1 ESE 6 8 1017.6 - 3.2 - - - - - - -
24/09:30am 13.7 ESE 4 5 1018.3 - 2.2 - - - - - - -
24/09:00am 13.6 ESE 3 4 1018.9 - 0.8 Rain - - - - - -
24/08:30am 13.6 ENE 5 6 1018.9 - 0.2 - - - - - - -
24/08:00am 13.5 ENE 6 8 1019.0 - 0.0 - - - - - - -
24/07:30am 13.5 ENE 7 9 1018.9 - 0.0 - - - - - - -
24/07:00am 13.3 ENE 5 6 1019.1 - 0.0 - - - - - - -
24/06:30am 13.4 E 7 8 1018.9 - 0.0 - - - - - - -
24/06:00am 13.5 E 6 8 1018.9 - 0.0 - - - - - - -
24/05:30am 13.5 E 6 8 1019.2 - 0.0 - - - - - - -
24/05:00am 13.5 E 5 7 1019.2 - 0.0 - - - - - - -
24/04:30am 13.4 ESE 5 8 1019.0 - 0.0 - - - - - - -
24/04:00am 13.4 SE 8 11 1019.0 - 0.0 - - - - - - -
24/03:30am 13.4 E 8 12 1019.2 - 0.0 - - - - - - -
24/03:00am 13.1 ESE 7 10 1019.5 - 0.0 - - - - - - -
24/02:30am 13.2 E 8 11 1019.8 - 0.0 - - - - - - -
24/02:00am 13.1 ESE 7 9 1020.2 - 0.0 - - - - - - -
24/01:30am 13.4 ESE 7 10 1020.6 - 0.0 - - - - - - -
24/01:00am 13.8 ESE 7 11 1020.9 - 0.0 - - - - - - -
24/12:30am 13.9 ESE 6 8 1021.2 - 0.0 - - - - - - -
24/12:00am 14.0 ESE 6 9 1021.5 - 0.0 - - - - - - -
 
Date/Time
CST
Temp
°C
Wind Pressure Rain since
9am
mm
Weather Cloud Vis
km
Sea
Height
m
Swell
Dir  Spd
kts
Gust
kts
hPa Trend Height
m
Period
s
Dir
23/11:30pm 14.1 ESE 6 8 1021.7 - 0.0 - - - - - - -
23/11:00pm 14.0 ESE 7 11 1021.6 - 0.0 - - - - - - -
23/10:30pm 14.3 ESE 6 8 1021.9 - 0.0 - - - - - - -
23/10:00pm 14.5 E 7 9 1022.1 - 0.0 - - - - - - -
23/09:30pm 14.6 ESE 7 9 1022.2 - 0.0 - - - - - - -
23/09:00pm 14.9 ESE 6 9 1022.3 - 0.0 - - - - - - -
23/08:30pm 14.9 SE 6 9 1022.2 - 0.0 - - - - - - -
23/08:00pm 15.4 SE 7 9 1022.2 - 0.0 - - - - - - -
23/07:30pm 15.7 SE 7 9 1022.3 - 0.0 - - - - - - -
23/07:00pm 15.9 SSE 7 10 1022.2 - 0.0 - - - - - - -
23/06:30pm 16.1 SSE 7 9 1022.2 - 0.0 - - - - - - -
23/06:00pm 16.7 S 9 10 1022.0 - 0.0 - - - - - - -
23/05:30pm 16.9 S 9 10 1021.8 - 0.0 - - - - - - -
23/05:00pm 17.2 SSW 9 11 1021.9 - 0.0 - - - - - - -
23/04:30pm 17.6 SSW 9 12 1021.8 - 0.0 - - - - - - -
23/04:00pm 18.6 SSW 9 11 1021.8 - 0.0 - - - - - - -
23/03:30pm 21.6 ESE 4 7 1021.8 - 0.0 - - - - - - -
23/03:00pm 20.7 E 5 7 1021.8 - 0.0 - - - - - - -
23/02:30pm 20.3 ESE 4 7 1021.8 - 0.0 - - - - - - -
23/02:00pm 21.0 ESE 5 8 1021.9 - 0.0 - - - - - - -
23/01:30pm 20.8 ESE 5 7 1022.1 - 0.0 - - - - - - -
23/01:00pm 20.5 E 8 12 1022.3 - 0.0 - - - - - - -
23/12:30pm 20.0 ESE 6 9 1022.7 - 0.0 - - - - - - -
23/12:00pm 19.2 SE 9 13 1023.2 - 0.0 - - - - - - -
23/11:30am 19.5 E 9 12 1023.4 - 0.0 - - - - - - -
23/11:00am 19.1 ESE 7 11 1024.1 - 0.0 - - - - - - -
23/10:30am 18.2 ESE 8 10 1024.5 - 0.0 - - - - - - -
23/10:00am 17.7 ESE 5 8 1024.9 - 0.0 - - - - - - -
23/09:30am 17.2 SE 6 9 1025.0 - 0.0 - - - - - - -
23/09:00am 15.9 SE 6 8 1024.9 - 0.0 - - - - - - -
23/08:30am 15.6 ESE 6 9 1024.7 - 0.0 - - - - - - -
23/08:00am 15.1 SE 8 10 1024.4 - 0.0 - - - - - - -
23/07:30am 14.7 SE 5 8 1024.3 - 0.0 - - - - - - -
23/07:00am 13.5 ESE 6 7 1023.9 - 0.0 - - - - - - -
23/06:30am 13.5 ESE 5 6 1024.0 - 0.0 - - - - - - -
23/06:00am 13.6 ESE 5 7 1023.8 - 0.0 - - - - - - -
23/05:30am 13.9 ESE 5 7 1023.5 - 0.0 - - - - - - -
23/05:00am 13.8 ESE 4 6 1023.4 - 0.0 - - - - - - -
23/04:30am 13.9 ESE 4 6 1023.3 - 0.0 - - - - - - -
23/04:00am 13.9 SE 4 5 1023.1 - 0.0 - - - - - - -
23/03:30am 14.2 SE 4 5 1023.1 - 0.0 - - - - - - -
23/03:00am 14.3 SE 4 6 1023.3 - 0.0 - - - - - - -
23/02:30am 14.8 SE 4 6 1023.6 - 0.0 - - - - - - -
23/02:00am 14.9 SE 5 6 1023.7 - 0.0 - - - - - - -
23/01:30am 15.3 SE 5 7 1023.8 - 0.0 - - - - - - -
23/01:00am 15.4 SE 4 6 1024.0 - 0.0 - - - - - - -
23/12:30am 15.5 SE 5 7 1024.1 - 0.0 - - - - - - -
23/12:00am 15.5 SE 5 7 1024.3 - 0.0 - - - - - - -
 
Date/Time
CST
Temp
°C
Wind Pressure Rain since
9am
mm
Weather Cloud Vis
km
Sea
Height
m
Swell
Dir  Spd
kts
Gust
kts
hPa Trend Height
m
Period
s
Dir
22/11:30pm 15.6 SE 5 7 1024.3 - 0.0 - - - - - - -
22/11:00pm 15.6 SE 6 8 1024.4 - 0.0 - - - - - - -
22/10:30pm 15.7 SSE 6 8 1024.5 - 0.0 - - - - - - -
22/10:00pm 15.9 SSE 6 9 1024.4 - 0.0 - - - - - - -
22/09:30pm 15.8 SSE 5 9 1024.4 - 0.0 - - - - - - -
22/09:00pm 15.7 SSE 5 7 1024.3 - 0.0 - - - - - - -
22/08:30pm 15.9 SSE 7 9 1024.0 - 0.0 - - - - - - -
22/08:00pm 16.1 SSE 6 9 1023.9 - 0.0 - - - - - - -
22/07:30pm 16.3 SSE 7 9 1023.7 - 0.0 - - - - - - -
22/07:00pm 16.4 SSE 7 10 1023.6 - 0.0 - - - - - - -
22/06:30pm 16.5 SSE 8 10 1023.3 - 0.0 - - - - - - -
22/06:00pm 16.8 SSE 8 11 1023.1 - 0.0 - - - - - - -
22/05:30pm 17.3 SSE 7 11 1023.0 - 0.0 - - - - - - -
22/05:00pm 17.4 S 10 12 1022.8 - 0.0 - - - - - - -
22/04:30pm 17.6 S 10 12 1022.6 - 0.0 - - - - - - -
22/04:00pm 17.6 SSW 10 13 1022.6 - 0.0 - - - - - - -
22/03:30pm 17.8 S 11 14 1022.6 - 0.0 - - - - - - -
22/03:00pm 17.9 SSW 13 15 1022.5 - 0.0 - - - - - - -
22/02:30pm 18.0 S 12 14 1022.6 - 0.0 - - - - - - -
22/02:00pm 18.3 SSW 11 14 1022.7 - 0.0 - - - - - - -
22/01:30pm 18.8 SSW 10 13 1022.8 - 0.0 - - - - - - -
22/01:00pm 19.1 SSW 11 13 1022.9 - 0.0 - - - - - - -
22/12:30pm 18.8 SSW 9 11 1023.1 - 0.0 - - - - - - -
22/12:00pm 19.1 SSW 9 11 1023.4 - 0.0 - - - - - - -
22/11:30am 18.6 S 8 10 1023.7 - 0.0 - - - - - - -
22/11:00am 18.9 SSW 8 10 1024.0 - 0.0 - - - - - - -
22/10:30am 18.3 SSW 6 8 1024.2 - 0.0 - - - - - - -
22/10:00am 17.9 SSW 5 7 1024.2 - 0.0 - - - - - - -
22/09:30am 17.8 S 5 7 1024.2 - 0.0 - - - - - - -
22/09:00am 17.6 S 4 6 1024.2 - 0.2 - - - - - - -
22/08:30am 17.0 S 5 6 1024.1 - 0.2 - - - - - - -
22/08:00am 17.0 S 3 5 1023.7 - 0.2 - - - - - - -
22/07:30am 16.6 SSE 4 5 1023.3 - 0.2 - - - - - - -
22/07:00am 15.8 SSW 4 4 1023.1 - 0.2 - - - - - - -
22/06:30am 16.1 SSW 3 3 1022.8 - 0.2 - - - - - - -
22/06:00am 16.3 SW 2 2 1022.6 - 0.2 - - - - - - -
22/05:30am 16.2 CALM 0 0 1022.5 - 0.2 - - - - - - -
22/05:00am 16.1 SW 1 1 1022.4 - 0.2 - - - - - - -
22/04:30am 16.1 SW 2 3 1022.2 - 0.2 - - - - - - -
22/04:00am 16.3 S 2 3 1021.7 - 0.2 - - - - - - -
22/03:30am 16.2 SSW 3 3 1021.7 - 0.2 - - - - - - -
22/03:00am 16.3 S 3 3 1021.7 - 0.2 - - - - - - -
22/02:30am 16.3 CALM 0 1 1022.0 - 0.2 - - - - - - -
22/02:00am 16.3 S 3 4 1022.0 - 0.2 - - - - - - -
22/01:30am 16.6 S 2 2 1022.1 - 0.2 - - - - - - -
22/01:00am 16.6 S 1 2 1022.1 - 0.2 - - - - - - -
22/12:30am 16.7 S 3 4 1022.1 - 0.2 - - - - - - -
22/12:00am 16.6 SSW 3 4 1022.1 - 0.2 - - - - - - -
 
Date/Time
CST
Temp
°C
Wind Pressure Rain since
9am
mm
Weather Cloud Vis
km
Sea
Height
m
Swell
Dir  Spd
kts
Gust
kts
hPa Trend Height
m
Period
s
Dir
21/11:30pm 16.6 S 5 6 1022.0 - 0.2 - - - - - - -
21/11:00pm 16.4 SSW 2 4 1022.0 - 0.2 - - - - - - -

Other Formats:

Comma delimited format used in spreadsheet applications
http://www.bom.gov.au/fwo/IDS60701/IDS60701.94813.axf

JavaScript Object Notation format (JSON) in row-major order
http://www.bom.gov.au/fwo/IDS60701/IDS60701.94813.json